Aviation Digital Data Service (ADDS)

Output produced by METARs form (2305 UTC 23 March 2019)
found at http://www.aviationweather.gov/metar/data/
 
Forecast for: ZSFZ (FUZHOU , CN)
Text: TAF ZSFZ 231920Z 2400/2424 04004MPS 6000 BKN030 TX15/2406Z TN09/2421Z
Forecast period: 0000 UTC 24 March 2019 to 0000 UTC 25 March 2019
Forecast type: FROM: standard forecast or significant change
Winds: from the NE (40 degrees) at 9 MPH (8 knots; 4.1 m/s)
Visibility: 4 miles (6 km)
Ceiling: 3000 feet AGL
Clouds: broken clouds at 3000 feet AGL
Weather: no significant weather forecast for this period